Time;durP1;ratioP1;P1;durP2;ratioP2;P2;SDS_P1;SDS_P2;PMS_P1;PMS_P2;Temp;Humidity;BMP_temperature;BMP_pressure;BME280_temperature;BME280_humidity;BME280_pressure;Samples;Min_cycle;Max_cycle;Signal;HPM_P1;HPM_P2
2021/07/03 00:00:12;;;;;;;7.43;4.35;;;;;;;;;;4983511;28;20043;-80
2021/07/03 00:02:38;;;;;;;5.43;3.60;;;;;;;;;;4983981;28;20050;-79
2021/07/03 00:05:05;;;;;;;7.35;4.53;;;;;;;;;;4984980;28;20052;-79
2021/07/03 00:07:33;;;;;;;8.40;4.70;;;;;;;;;;4986015;28;20046;-80
2021/07/03 00:09:59;;;;;;;7.32;4.90;;;;;;;;;;4978072;28;20043;-79
2021/07/03 00:12:26;;;;;;;8.38;4.20;;;;;;;;;;4978794;28;20051;-79
2021/07/03 00:14:52;;;;;;;7.40;4.93;;;;;;;;;;4978323;28;20043;-78
2021/07/03 00:17:19;;;;;;;7.13;4.18;;;;;;;;;;4977511;28;20051;-79
2021/07/03 00:19:45;;;;;;;7.00;3.90;;;;;;;;;;4977441;28;20051;-81
2021/07/03 00:22:11;;;;;;;7.78;4.65;;;;;;;;;;4978063;28;20047;-80
2021/07/03 00:24:39;;;;;;;7.03;4.35;;;;;;;;;;4977940;28;20054;-78
2021/07/03 00:27:06;;;;;;;8.25;4.82;;;;;;;;;;4978347;28;20047;-79
2021/07/03 00:29:32;;;;;;;7.07;4.18;;;;;;;;;;4978588;28;20043;-78
2021/07/03 00:31:59;;;;;;;10.27;4.40;;;;;;;;;;4978662;28;20058;-78
2021/07/03 00:34:25;;;;;;;6.65;4.03;;;;;;;;;;4978269;28;20143;-79
2021/07/03 00:36:51;;;;;;;7.47;4.40;;;;;;;;;;4977393;28;20484;-79
2021/07/03 00:39:18;;;;;;;7.10;4.72;;;;;;;;;;4987317;28;20049;-78
2021/07/03 00:41:46;;;;;;;8.13;4.30;;;;;;;;;;4997643;28;20056;-78
2021/07/03 00:44:12;;;;;;;8.48;5.00;;;;;;;;;;4998080;28;20499;-79
2021/07/03 00:46:39;;;;;;;9.40;4.90;;;;;;;;;;4997848;28;20509;-79
2021/07/03 00:49:06;;;;;;;8.90;4.93;;;;;;;;;;4998190;28;20120;-78
2021/07/03 00:51:33;;;;;;;9.43;4.57;;;;;;;;;;4997687;28;20619;-80
2021/07/03 00:54:00;;;;;;;7.20;4.68;;;;;;;;;;4997585;28;20507;-79
2021/07/03 00:56:28;;;;;;;10.23;4.80;;;;;;;;;;4997455;28;20395;-80
2021/07/03 00:58:56;;;;;;;7.13;3.88;;;;;;;;;;5003435;28;20050;-79
2021/07/03 01:01:22;;;;;;;8.50;5.30;;;;;;;;;;4998607;28;20395;-79
2021/07/03 01:03:49;;;;;;;10.80;5.28;;;;;;;;;;4999380;28;20410;-78
2021/07/03 01:06:15;;;;;;;7.60;4.10;;;;;;;;;;4998657;28;20046;-78
2021/07/03 01:08:41;;;;;;;8.00;4.45;;;;;;;;;;4998708;28;20046;-80
2021/07/03 01:11:08;;;;;;;9.70;5.88;;;;;;;;;;4998970;28;20050;-81
2021/07/03 01:13:34;;;;;;;7.55;4.32;;;;;;;;;;4998042;28;20050;-80
2021/07/03 01:16:02;;;;;;;7.43;4.70;;;;;;;;;;4998863;28;20057;-80
2021/07/03 01:18:29;;;;;;;8.65;4.68;;;;;;;;;;4998308;28;20054;-78
2021/07/03 01:20:55;;;;;;;6.15;3.90;;;;;;;;;;4998666;28;20050;-79
2021/07/03 01:23:24;;;;;;;8.05;4.40;;;;;;;;;;4999429;28;20053;-78
2021/07/03 01:25:56;;;;;;;6.50;3.97;;;;;;;;;;4999764;28;20054;-79
2021/07/03 01:28:22;;;;;;;7.88;4.55;;;;;;;;;;4998913;28;20069;-81
2021/07/03 01:30:49;;;;;;;6.60;4.30;;;;;;;;;;4999262;28;20051;-81
2021/07/03 01:33:16;;;;;;;6.70;3.97;;;;;;;;;;4999134;28;20050;-80
2021/07/03 01:35:42;;;;;;;7.15;4.40;;;;;;;;;;4999243;28;20047;-79
2021/07/03 01:38:08;;;;;;;6.78;3.95;;;;;;;;;;4998726;28;20483;-78
2021/07/03 01:40:36;;;;;;;7.28;4.07;;;;;;;;;;4999023;28;20490;-81
2021/07/03 01:43:03;;;;;;;6.13;4.07;;;;;;;;;;4998879;28;20053;-78
2021/07/03 01:45:29;;;;;;;8.50;4.35;;;;;;;;;;4998914;28;20046;-78
2021/07/03 01:47:56;;;;;;;6.70;4.32;;;;;;;;;;4998409;28;20053;-80
2021/07/03 01:50:22;;;;;;;6.68;4.30;;;;;;;;;;4997142;28;20042;-79
2021/07/03 01:52:50;;;;;;;8.77;4.43;;;;;;;;;;4998668;28;20043;-79
2021/07/03 01:55:17;;;;;;;6.75;4.25;;;;;;;;;;4999714;28;20046;-81
2021/07/03 01:57:45;;;;;;;6.80;4.05;;;;;;;;;;4999419;28;20042;-78
2021/07/03 02:00:12;;;;;;;7.38;4.70;;;;;;;;;;5000242;28;20057;-78
2021/07/03 02:02:39;;;;;;;8.75;3.92;;;;;;;;;;4999788;28;20407;-81
2021/07/03 02:05:06;;;;;;;7.80;4.70;;;;;;;;;;4999747;28;20398;-80
2021/07/03 02:07:33;;;;;;;8.68;4.75;;;;;;;;;;4999517;28;20057;-78
2021/07/03 02:10:00;;;;;;;7.38;4.82;;;;;;;;;;5000190;28;20050;-82
2021/07/03 02:12:26;;;;;;;9.68;5.20;;;;;;;;;;5000065;28;20093;-79
2021/07/03 02:14:54;;;;;;;6.97;4.15;;;;;;;;;;5000290;28;20046;-79
2021/07/03 02:17:21;;;;;;;8.38;4.43;;;;;;;;;;5000647;28;20046;-78
2021/07/03 02:19:47;;;;;;;8.13;4.65;;;;;;;;;;4999716;28;20064;-80
2021/07/03 02:22:14;;;;;;;7.32;4.40;;;;;;;;;;4993050;28;20053;-80
2021/07/03 02:24:40;;;;;;;6.65;3.83;;;;;;;;;;4979053;28;20061;-80
2021/07/03 02:27:07;;;;;;;8.30;4.00;;;;;;;;;;4978949;28;20054;-79
2021/07/03 02:29:33;;;;;;;7.00;4.60;;;;;;;;;;4997777;28;20058;-81
2021/07/03 02:32:01;;;;;;;10.60;4.72;;;;;;;;;;4981190;28;20050;-81
2021/07/03 02:34:28;;;;;;;7.28;4.05;;;;;;;;;;4990378;28;20053;-81
2021/07/03 02:36:54;;;;;;;8.95;4.60;;;;;;;;;;4989078;28;20059;-80
2021/07/03 02:39:21;;;;;;;7.38;4.30;;;;;;;;;;4981110;28;20057;-81
2021/07/03 02:41:47;;;;;;;5.82;3.85;;;;;;;;;;4982661;28;20046;-81
2021/07/03 02:44:14;;;;;;;6.45;4.13;;;;;;;;;;4981690;28;20047;-79
2021/07/03 02:46:40;;;;;;;7.55;4.00;;;;;;;;;;4982415;28;20547;-81
2021/07/03 02:49:08;;;;;;;5.95;3.42;;;;;;;;;;4982296;28;20134;-82
2021/07/03 02:51:34;;;;;;;7.10;3.95;;;;;;;;;;4991907;28;20051;-78
2021/07/03 02:54:01;;;;;;;8.10;4.50;;;;;;;;;;4996957;28;20046;-80
2021/07/03 02:56:27;;;;;;;7.22;4.40;;;;;;;;;;4997769;28;20057;-78
2021/07/03 02:58:54;;;;;;;8.75;4.10;;;;;;;;;;4995607;28;20051;-78
2021/07/03 03:01:20;;;;;;;6.97;3.78;;;;;;;;;;4986748;28;20046;-80
2021/07/03 03:03:47;;;;;;;6.93;4.13;;;;;;;;;;4986584;28;20432;-80
2021/07/03 03:06:15;;;;;;;9.88;5.38;;;;;;;;;;4977638;28;20083;-78
2021/07/03 03:08:41;;;;;;;7.47;4.63;;;;;;;;;;4988719;28;20185;-78
2021/07/03 03:11:08;;;;;;;8.52;3.90;;;;;;;;;;4983125;28;20047;-79
2021/07/03 03:13:34;;;;;;;7.60;4.22;;;;;;;;;;4977779;28;20058;-78
2021/07/03 03:16:01;;;;;;;8.27;4.20;;;;;;;;;;4977442;28;20049;-80
2021/07/03 03:18:27;;;;;;;6.53;3.95;;;;;;;;;;4984586;28;20042;-79
2021/07/03 03:20:53;;;;;;;7.07;3.97;;;;;;;;;;4997196;28;20046;-79
2021/07/03 03:23:21;;;;;;;6.55;3.85;;;;;;;;;;4996471;28;20046;-80
2021/07/03 03:25:49;;;;;;;7.38;4.70;;;;;;;;;;4984209;28;20043;-80
2021/07/03 03:28:15;;;;;;;7.05;4.60;;;;;;;;;;4984472;28;20062;-79
2021/07/03 03:30:42;;;;;;;5.88;4.00;;;;;;;;;;4990431;28;20046;-80
2021/07/03 03:33:08;;;;;;;5.93;3.58;;;;;;;;;;4994586;28;20051;-78
2021/07/03 03:35:35;;;;;;;6.72;4.07;;;;;;;;;;4994122;28;20057;-82
2021/07/03 03:38:01;;;;;;;6.90;4.32;;;;;;;;;;5004532;28;20488;-80
2021/07/03 03:40:29;;;;;;;7.40;4.55;;;;;;;;;;4987530;28;20373;-79
2021/07/03 03:42:56;;;;;;;7.22;4.05;;;;;;;;;;4987460;28;20050;-80
2021/07/03 03:45:23;;;;;;;7.88;4.95;;;;;;;;;;5004436;28;20046;-79
2021/07/03 03:47:50;;;;;;;8.45;4.68;;;;;;;;;;5004152;28;20054;-80
2021/07/03 03:50:16;;;;;;;8.98;4.65;;;;;;;;;;5000533;28;20043;-80
2021/07/03 03:52:43;;;;;;;6.60;4.22;;;;;;;;;;4985549;28;20078;-80
2021/07/03 03:55:10;;;;;;;7.63;4.63;;;;;;;;;;5005533;28;20046;-81
2021/07/03 03:57:38;;;;;;;8.40;4.72;;;;;;;;;;5005085;28;20052;-79
2021/07/03 04:00:06;;;;;;;7.82;4.20;;;;;;;;;;5004231;28;20073;-78
2021/07/03 04:02:33;;;;;;;12.23;4.28;;;;;;;;;;4986301;28;20057;-79
2021/07/03 04:04:59;;;;;;;10.05;4.50;;;;;;;;;;4990857;28;20046;-79
2021/07/03 04:07:26;;;;;;;7.07;4.07;;;;;;;;;;5006016;28;20046;-82
2021/07/03 04:09:53;;;;;;;7.70;4.07;;;;;;;;;;5006513;28;20061;-79
2021/07/03 04:12:19;;;;;;;7.45;4.15;;;;;;;;;;4986667;28;20051;-79
2021/07/03 04:14:47;;;;;;;8.45;4.07;;;;;;;;;;4985422;28;20054;-79
2021/07/03 04:17:13;;;;;;;8.15;5.07;;;;;;;;;;5003959;28;20054;-80
2021/07/03 04:19:40;;;;;;;5.95;3.80;;;;;;;;;;5003350;28;20057;-81
2021/07/03 04:22:07;;;;;;;6.05;3.80;;;;;;;;;;5001943;28;20510;-81
2021/07/03 04:24:33;;;;;;;8.02;4.45;;;;;;;;;;4987217;28;20055;-80
2021/07/03 04:27:00;;;;;;;6.80;4.07;;;;;;;;;;4984276;28;20050;-82
2021/07/03 04:29:26;;;;;;;9.88;4.55;;;;;;;;;;4983652;28;20058;-81
2021/07/03 04:31:54;;;;;;;10.32;4.30;;;;;;;;;;4999566;28;20053;-79
2021/07/03 04:34:21;;;;;;;8.20;4.85;;;;;;;;;;4992552;28;20054;-80
2021/07/03 04:36:47;;;;;;;7.85;4.57;;;;;;;;;;5004488;28;20061;-81
2021/07/03 04:39:14;;;;;;;6.55;4.38;;;;;;;;;;4997677;28;20046;-79
2021/07/03 04:41:41;;;;;;;7.38;4.93;;;;;;;;;;4995531;28;20514;-81
2021/07/03 04:44:08;;;;;;;7.03;4.22;;;;;;;;;;5002725;28;20053;-80
2021/07/03 04:46:34;;;;;;;5.85;3.65;;;;;;;;;;5002445;28;20046;-79
2021/07/03 04:49:03;;;;;;;8.70;4.68;;;;;;;;;;5002322;28;20046;-79
2021/07/03 04:51:31;;;;;;;6.78;4.07;;;;;;;;;;5001861;28;20054;-81
2021/07/03 04:53:57;;;;;;;6.25;4.03;;;;;;;;;;5003110;28;20054;-80
2021/07/03 04:56:24;;;;;;;7.53;4.28;;;;;;;;;;5003297;28;20053;-81
2021/07/03 04:58:50;;;;;;;7.80;4.20;;;;;;;;;;4995561;28;20062;-82
2021/07/03 05:01:17;;;;;;;7.25;4.15;;;;;;;;;;4997242;28;20052;-82
2021/07/03 05:03:43;;;;;;;7.70;3.97;;;;;;;;;;5002797;28;20060;-81
2021/07/03 05:06:11;;;;;;;8.25;4.05;;;;;;;;;;4993766;28;20058;-82
2021/07/03 05:08:37;;;;;;;6.97;4.22;;;;;;;;;;5003541;28;20046;-80
2021/07/03 05:11:04;;;;;;;8.90;4.65;;;;;;;;;;5003101;28;20038;-82
2021/07/03 05:13:31;;;;;;;7.90;3.35;;;;;;;;;;5002725;28;20046;-83
2021/07/03 05:15:58;;;;;;;6.40;3.72;;;;;;;;;;5004159;28;20077;-83
2021/07/03 05:18:24;;;;;;;10.68;3.97;;;;;;;;;;4997875;28;20053;-82
2021/07/03 05:20:51;;;;;;;6.50;3.90;;;;;;;;;;4985077;28;20047;-82
2021/07/03 05:23:19;;;;;;;8.70;4.35;;;;;;;;;;4983401;28;20049;-82
2021/07/03 05:25:46;;;;;;;10.00;5.10;;;;;;;;;;4980099;28;20506;-81
2021/07/03 05:28:13;;;;;;;9.20;4.97;;;;;;;;;;4979391;28;20059;-81
2021/07/03 05:30:40;;;;;;;8.68;5.22;;;;;;;;;;4983183;28;20046;-82
2021/07/03 05:33:07;;;;;;;8.98;4.97;;;;;;;;;;4981669;28;20136;-81
2021/07/03 05:35:34;;;;;;;8.00;4.75;;;;;;;;;;4977660;28;20053;-83
2021/07/03 05:38:01;;;;;;;7.70;4.65;;;;;;;;;;4987567;28;20043;-84
2021/07/03 05:40:30;;;;;;;9.13;4.25;;;;;;;;;;4982095;28;20047;-84
2021/07/03 05:42:57;;;;;;;8.25;4.88;;;;;;;;;;4998739;28;20122;-84
2021/07/03 05:45:24;;;;;;;9.75;5.00;;;;;;;;;;4998503;28;20156;-80
2021/07/03 05:47:53;;;;;;;7.35;4.53;;;;;;;;;;4983384;28;20054;-80
2021/07/03 05:50:22;;;;;;;6.85;4.55;;;;;;;;;;4978205;28;20053;-83
2021/07/03 05:52:49;;;;;;;6.70;4.78;;;;;;;;;;4997179;28;20491;-82
2021/07/03 05:55:16;;;;;;;8.07;5.03;;;;;;;;;;4997005;28;20052;-82
2021/07/03 05:57:45;;;;;;;8.85;5.57;;;;;;;;;;4989348;28;20058;-81
2021/07/03 06:00:13;;;;;;;8.35;4.63;;;;;;;;;;4987687;28;20054;-82
2021/07/03 06:02:40;;;;;;;7.80;4.88;;;;;;;;;;4979301;28;20047;-83
2021/07/03 06:05:08;;;;;;;7.18;5.20;;;;;;;;;;4978308;28;20058;-83
2021/07/03 06:07:35;;;;;;;7.88;4.95;;;;;;;;;;4988715;28;20388;-83
2021/07/03 06:10:02;;;;;;;8.18;4.70;;;;;;;;;;4997897;28;20129;-83
2021/07/03 06:12:28;;;;;;;8.02;5.05;;;;;;;;;;4980537;28;20061;-80
2021/07/03 06:14:56;;;;;;;7.22;4.35;;;;;;;;;;4978635;28;20047;-80
2021/07/03 06:17:22;;;;;;;8.18;4.97;;;;;;;;;;4982583;28;20042;-80
2021/07/03 06:19:49;;;;;;;5.70;4.03;;;;;;;;;;4990446;28;20058;-80
2021/07/03 06:22:15;;;;;;;8.05;4.38;;;;;;;;;;4994497;28;20054;-81
2021/07/03 06:24:42;;;;;;;7.95;4.50;;;;;;;;;;4983289;28;20567;-80
2021/07/03 06:27:09;;;;;;;8.43;5.65;;;;;;;;;;4980055;28;20051;-80
2021/07/03 06:29:36;;;;;;;7.07;4.82;;;;;;;;;;4979890;28;20055;-80
2021/07/03 06:32:05;;;;;;;7.80;4.93;;;;;;;;;;4989145;28;20129;-82
2021/07/03 06:34:32;;;;;;;7.55;4.97;;;;;;;;;;4995168;28;20047;-80
2021/07/03 06:36:58;;;;;;;7.68;4.60;;;;;;;;;;5000756;28;20050;-80
2021/07/03 06:39:25;;;;;;;6.65;4.47;;;;;;;;;;5001543;28;20050;-81
2021/07/03 06:41:51;;;;;;;7.50;4.80;;;;;;;;;;4990046;28;20053;-82
2021/07/03 06:44:18;;;;;;;7.25;4.82;;;;;;;;;;4995345;28;20043;-82
2021/07/03 06:46:51;;;;;;;7.25;4.82;;;;;;;;;;5003208;28;20050;-83
2021/07/03 06:49:19;;;;;;;6.25;4.55;;;;;;;;;;5002808;28;20483;-81
2021/07/03 06:51:46;;;;;;;7.72;5.45;;;;;;;;;;4992357;28;20403;-82
2021/07/03 06:54:12;;;;;;;8.10;4.53;;;;;;;;;;4983732;28;20061;-82
2021/07/03 06:56:39;;;;;;;9.90;5.45;;;;;;;;;;4984315;28;20427;-81
2021/07/03 06:59:05;;;;;;;5.65;4.30;;;;;;;;;;4989953;28;20134;-81
2021/07/03 07:01:32;;;;;;;6.78;4.32;;;;;;;;;;4985613;28;20057;-81
2021/07/03 07:03:58;;;;;;;7.57;4.75;;;;;;;;;;4997796;28;20038;-81
2021/07/03 07:06:26;;;;;;;25.35;6.07;;;;;;;;;;5000966;28;20053;-80
2021/07/03 07:08:53;;;;;;;7.88;4.43;;;;;;;;;;4998556;28;20526;-80
2021/07/03 07:11:19;;;;;;;6.85;5.03;;;;;;;;;;4992567;28;20046;-80
2021/07/03 07:13:46;;;;;;;6.53;4.22;;;;;;;;;;4988939;28;20052;-82
2021/07/03 07:16:12;;;;;;;5.97;4.28;;;;;;;;;;4999093;28;20458;-81
2021/07/03 07:18:39;;;;;;;7.75;4.97;;;;;;;;;;4993303;28;20043;-80
2021/07/03 07:21:05;;;;;;;6.40;3.90;;;;;;;;;;4997919;28;20047;-82
2021/07/03 07:23:33;;;;;;;6.07;4.72;;;;;;;;;;4996289;28;20042;-84
2021/07/03 07:25:59;;;;;;;6.35;4.30;;;;;;;;;;5001770;28;20491;-80
2021/07/03 07:28:26;;;;;;;6.38;3.92;;;;;;;;;;5002561;28;20057;-80
2021/07/03 07:30:53;;;;;;;6.32;4.43;;;;;;;;;;5001148;28;20050;-80
2021/07/03 07:33:19;;;;;;;5.97;4.43;;;;;;;;;;4983237;28;20051;-81
2021/07/03 07:35:46;;;;;;;7.03;4.38;;;;;;;;;;4999392;28;20056;-80
2021/07/03 07:38:12;;;;;;;7.15;4.57;;;;;;;;;;5001335;28;20110;-83
2021/07/03 07:40:40;;;;;;;6.40;4.50;;;;;;;;;;4999504;28;20078;-80
2021/07/03 07:43:07;;;;;;;6.25;4.57;;;;;;;;;;4982600;28;20102;-80
2021/07/03 07:45:34;;;;;;;7.18;4.00;;;;;;;;;;4981947;28;20543;-83
2021/07/03 07:48:00;;;;;;;5.50;4.00;;;;;;;;;;4984643;28;20046;-81
2021/07/03 07:50:27;;;;;;;6.88;4.40;;;;;;;;;;5001239;28;20068;-81
2021/07/03 07:52:54;;;;;;;5.70;3.72;;;;;;;;;;4984810;28;20054;-79
2021/07/03 07:55:20;;;;;;;8.10;4.72;;;;;;;;;;4982767;28;20149;-81
2021/07/03 07:57:48;;;;;;;6.63;4.75;;;;;;;;;;4983533;28;20050;-81
2021/07/03 08:00:17;;;;;;;6.85;4.03;;;;;;;;;;4983653;28;20051;-82
2021/07/03 08:02:44;;;;;;;6.32;4.45;;;;;;;;;;4999508;28;20624;-81
2021/07/03 08:05:11;;;;;;;7.20;4.40;;;;;;;;;;5002409;28;20058;-82
2021/07/03 08:07:38;;;;;;;7.00;4.38;;;;;;;;;;5001101;28;20486;-80
2021/07/03 08:10:05;;;;;;;7.05;4.38;;;;;;;;;;5001959;28;20155;-81
2021/07/03 08:12:31;;;;;;;6.15;4.22;;;;;;;;;;4983044;28;20050;-80
2021/07/03 08:14:59;;;;;;;6.90;4.45;;;;;;;;;;4982659;28;20411;-81
2021/07/03 08:17:26;;;;;;;7.57;4.70;;;;;;;;;;4983916;28;20484;-81
2021/07/03 08:19:52;;;;;;;6.03;4.13;;;;;;;;;;4999230;28;20039;-82
2021/07/03 08:22:19;;;;;;;7.75;4.53;;;;;;;;;;4985823;28;20133;-82
2021/07/03 08:24:45;;;;;;;6.22;4.47;;;;;;;;;;4985331;28;20051;-80
2021/07/03 08:27:12;;;;;;;6.78;4.30;;;;;;;;;;4995383;28;20054;-81
2021/07/03 08:29:38;;;;;;;7.78;4.68;;;;;;;;;;5002076;28;20053;-83
2021/07/03 08:32:07;;;;;;;5.30;4.00;;;;;;;;;;4993988;28;20081;-82
2021/07/03 08:34:33;;;;;;;5.25;3.78;;;;;;;;;;4997603;28;20047;-82
2021/07/03 08:37:00;;;;;;;10.27;4.28;;;;;;;;;;4997801;28;20060;-82
2021/07/03 08:39:26;;;;;;;4.72;3.63;;;;;;;;;;4994009;28;20042;-83
2021/07/03 08:41:53;;;;;;;7.43;3.90;;;;;;;;;;4995222;28;20418;-80
2021/07/03 08:44:19;;;;;;;5.85;3.95;;;;;;;;;;4990787;28;20038;-82
2021/07/03 08:46:46;;;;;;;5.13;3.78;;;;;;;;;;4995492;28;20062;-82
2021/07/03 08:49:16;;;;;;;4.85;3.60;;;;;;;;;;4995675;28;20034;-81
2021/07/03 08:51:43;;;;;;;16.40;4.93;;;;;;;;;;4995587;28;20054;-81
2021/07/03 08:54:10;;;;;;;5.28;3.70;;;;;;;;;;4998708;28;20052;-82
2021/07/03 08:56:36;;;;;;;6.63;3.67;;;;;;;;;;4992509;28;20057;-81
2021/07/03 08:59:03;;;;;;;5.20;3.90;;;;;;;;;;4990536;28;20059;-81
2021/07/03 09:01:29;;;;;;;5.80;3.70;;;;;;;;;;4993757;28;20072;-84
2021/07/03 09:03:57;;;;;;;6.85;3.88;;;;;;;;;;4990715;28;20050;-81
2021/07/03 09:06:33;;;;;;;5.40;3.80;;;;;;;;;;4989562;28;20114;-84
2021/07/03 09:09:00;;;;;;;6.05;4.28;;;;;;;;;;4991246;28;20118;-80
2021/07/03 09:11:27;;;;;;;6.22;4.15;;;;;;;;;;4996028;28;20050;-81
2021/07/03 09:14:01;;;;;;;5.00;3.90;;;;;;;;;;4995380;28;20054;-81
2021/07/03 09:16:31;;;;;;;5.38;3.83;;;;;;;;;;4990955;28;20042;-82
2021/07/03 09:19:00;;;;;;;4.80;3.47;;;;;;;;;;4999549;28;20057;-83
2021/07/03 09:21:27;;;;;;;3.70;2.80;;;;;;;;;;4981544;28;20051;-79
2021/07/03 09:23:55;;;;;;;5.72;3.40;;;;;;;;;;4983463;28;20552;-80
2021/07/03 09:26:21;;;;;;;4.88;3.78;;;;;;;;;;4985296;28;20049;-80
2021/07/03 09:28:49;;;;;;;4.85;3.92;;;;;;;;;;4992350;28;20055;-82
2021/07/03 09:31:17;;;;;;;5.32;3.60;;;;;;;;;;4989534;28;20137;-81
2021/07/03 09:33:47;;;;;;;4.90;3.63;;;;;;;;;;4992332;28;20078;-81
2021/07/03 09:36:16;;;;;;;5.68;3.55;;;;;;;;;;4994078;28;20569;-81
2021/07/03 09:38:44;;;;;;;4.50;3.55;;;;;;;;;;4984411;28;20105;-82
2021/07/03 09:41:14;;;;;;;5.65;3.80;;;;;;;;;;4992044;28;20061;-82
2021/07/03 09:44:00;;;;;;;4.82;3.65;;;;;;;;;;4990805;28;20055;-81
2021/07/03 09:46:29;;;;;;;4.78;3.42;;;;;;;;;;4989167;28;20133;-81
2021/07/03 09:48:57;;;;;;;4.53;3.45;;;;;;;;;;4990486;28;20058;-80
2021/07/03 09:51:28;;;;;;;6.30;3.58;;;;;;;;;;4996233;28;20074;-79
2021/07/03 09:53:56;;;;;;;4.93;3.47;;;;;;;;;;4993326;28;20321;-80
2021/07/03 09:56:24;;;;;;;6.07;3.70;;;;;;;;;;4990871;28;20061;-82
2021/07/03 09:58:51;;;;;;;5.90;3.67;;;;;;;;;;4993116;28;20062;-83
2021/07/03 10:01:17;;;;;;;5.70;3.80;;;;;;;;;;4992317;28;20047;-81
2021/07/03 10:03:44;;;;;;;6.88;3.70;;;;;;;;;;4990536;28;20046;-80
2021/07/03 10:06:18;;;;;;;4.93;3.60;;;;;;;;;;4995903;28;20050;-83
2021/07/03 10:08:46;;;;;;;7.97;3.50;;;;;;;;;;4994092;28;20050;-82
2021/07/03 10:11:17;;;;;;;6.00;4.10;;;;;;;;;;4999028;28;20050;-82
2021/07/03 10:13:45;;;;;;;4.68;3.30;;;;;;;;;;4994515;28;20130;-82
2021/07/03 10:16:14;;;;;;;3.92;3.20;;;;;;;;;;4994757;28;20070;-81
2021/07/03 10:18:40;;;;;;;5.22;3.88;;;;;;;;;;4997273;28;20061;-82
2021/07/03 10:21:09;;;;;;;6.03;3.47;;;;;;;;;;4996019;28;20462;-81
2021/07/03 10:23:37;;;;;;;4.53;3.45;;;;;;;;;;4990893;28;20057;-82
2021/07/03 10:26:03;;;;;;;5.53;3.65;;;;;;;;;;4994316;28;20129;-83
2021/07/03 10:28:32;;;;;;;4.88;3.35;;;;;;;;;;4995131;28;20491;-81
2021/07/03 10:31:06;;;;;;;4.80;4.10;;;;;;;;;;4992775;28;20109;-81
2021/07/03 10:33:45;;;;;;;4.78;3.53;;;;;;;;;;4993503;28;20049;-81
2021/07/03 10:36:23;;;;;;;6.00;3.70;;;;;;;;;;4995652;28;20046;-80
2021/07/03 10:38:49;;;;;;;4.85;3.42;;;;;;;;;;4996563;28;20050;-80
2021/07/03 10:41:18;;;;;;;5.20;3.35;;;;;;;;;;5000932;28;20046;-81
2021/07/03 10:43:45;;;;;;;4.43;3.45;;;;;;;;;;4998880;28;20043;-80
2021/07/03 10:46:13;;;;;;;4.28;3.40;;;;;;;;;;5001551;28;20046;-80
2021/07/03 10:48:40;;;;;;;5.30;3.28;;;;;;;;;;4997266;28;20053;-81
2021/07/03 10:51:10;;;;;;;4.55;2.92;;;;;;;;;;4997758;28;20046;-80
2021/07/03 10:53:37;;;;;;;4.35;3.17;;;;;;;;;;4996411;28;20135;-80
2021/07/03 10:56:10;;;;;;;4.70;3.33;;;;;;;;;;4996693;28;20054;-80
2021/07/03 10:58:37;;;;;;;4.32;3.13;;;;;;;;;;4999057;28;20050;-81
2021/07/03 11:01:12;;;;;;;4.38;2.65;;;;;;;;;;4994784;28;20572;-79
2021/07/03 11:03:44;;;;;;;5.15;2.80;;;;;;;;;;4996621;28;20050;-78
2021/07/03 11:06:15;;;;;;;4.38;2.60;;;;;;;;;;4991364;28;20061;-79
2021/07/03 11:08:43;;;;;;;5.55;3.00;;;;;;;;;;4995014;28;20046;-78
2021/07/03 11:11:10;;;;;;;3.65;2.63;;;;;;;;;;4997142;28;20138;-80
2021/07/03 11:13:37;;;;;;;4.15;2.80;;;;;;;;;;4990800;28;20057;-79
2021/07/03 11:16:04;;;;;;;3.95;2.80;;;;;;;;;;4989990;28;20047;-79
2021/07/03 11:18:34;;;;;;;3.53;2.80;;;;;;;;;;4990211;28;20047;-79
2021/07/03 11:21:08;;;;;;;4.13;2.90;;;;;;;;;;4996788;28;20407;-79
2021/07/03 11:23:36;;;;;;;4.97;2.93;;;;;;;;;;4992119;28;20039;-81
2021/07/03 11:26:08;;;;;;;4.38;2.75;;;;;;;;;;4993765;28;20046;-78
2021/07/03 11:28:35;;;;;;;4.22;2.92;;;;;;;;;;4989191;28;20109;-79
2021/07/03 11:31:02;;;;;;;4.95;2.97;;;;;;;;;;4989838;28;20060;-78
2021/07/03 11:33:29;;;;;;;4.93;2.67;;;;;;;;;;4994424;28;20468;-80
2021/07/03 11:35:57;;;;;;;4.18;3.38;;;;;;;;;;4996797;28;20439;-82
2021/07/03 11:38:26;;;;;;;4.05;2.90;;;;;;;;;;4996561;28;20070;-80
2021/07/03 11:40:54;;;;;;;4.38;2.50;;;;;;;;;;4992882;28;20046;-79
2021/07/03 11:43:21;;;;;;;3.22;2.50;;;;;;;;;;4991491;28;20062;-81
2021/07/03 11:45:48;;;;;;;3.10;2.22;;;;;;;;;;4983167;28;20637;-80
2021/07/03 11:48:15;;;;;;;4.60;2.67;;;;;;;;;;4991857;28;20100;-80
2021/07/03 11:50:43;;;;;;;3.05;2.40;;;;;;;;;;4993832;28;20053;-78
2021/07/03 11:53:13;;;;;;;3.63;2.50;;;;;;;;;;4991868;28;20106;-79
2021/07/03 11:55:44;;;;;;;4.78;2.55;;;;;;;;;;4995275;28;20569;-81
2021/07/03 11:58:12;;;;;;;3.13;2.50;;;;;;;;;;4998499;28;20137;-81
2021/07/03 12:00:40;;;;;;;3.78;2.80;;;;;;;;;;4990401;28;20051;-79
2021/07/03 12:03:10;;;;;;;3.88;2.25;;;;;;;;;;4993819;28;20049;-79
2021/07/03 12:05:38;;;;;;;3.58;2.50;;;;;;;;;;4993364;28;20054;-80
2021/07/03 12:08:07;;;;;;;3.65;2.72;;;;;;;;;;5001196;28;20046;-79
2021/07/03 12:10:38;;;;;;;3.70;2.75;;;;;;;;;;4995869;28;20046;-80
2021/07/03 12:13:08;;;;;;;3.92;2.88;;;;;;;;;;4993810;28;20060;-80
2021/07/03 12:15:35;;;;;;;3.40;2.50;;;;;;;;;;4994529;28;20058;-81
2021/07/03 12:18:02;;;;;;;3.13;2.33;;;;;;;;;;4993506;28;20039;-83
2021/07/03 12:20:30;;;;;;;3.25;2.45;;;;;;;;;;4992437;28;20085;-81
2021/07/03 12:22:59;;;;;;;3.58;2.53;;;;;;;;;;4991844;28;20109;-82
2021/07/03 12:25:26;;;;;;;3.92;2.35;;;;;;;;;;4992138;28;20066;-80
2021/07/03 12:27:55;;;;;;;3.28;2.53;;;;;;;;;;4994843;28;20435;-80
2021/07/03 12:30:23;;;;;;;3.63;2.63;;;;;;;;;;4995419;28;20047;-81
2021/07/03 12:33:01;;;;;;;3.97;2.60;;;;;;;;;;4991609;28;20050;-81
2021/07/03 12:35:37;;;;;;;4.13;2.45;;;;;;;;;;4990506;28;20106;-82
2021/07/03 12:38:04;;;;;;;3.22;2.38;;;;;;;;;;4992292;28;20047;-79
2021/07/03 12:40:36;;;;;;;3.60;2.28;;;;;;;;;;4989611;28;20050;-81
2021/07/03 12:43:04;;;;;;;4.32;2.63;;;;;;;;;;4996889;28;20050;-80
2021/07/03 12:45:32;;;;;;;3.47;2.35;;;;;;;;;;4991270;28;20054;-79
2021/07/03 12:48:10;;;;;;;6.60;2.90;;;;;;;;;;4990954;28;20050;-79
2021/07/03 12:50:37;;;;;;;3.60;2.47;;;;;;;;;;5000972;28;20050;-79
2021/07/03 12:53:08;;;;;;;3.40;2.58;;;;;;;;;;4989748;28;20057;-79
2021/07/03 12:55:39;;;;;;;3.40;2.50;;;;;;;;;;4981242;28;20137;-83
2021/07/03 12:58:06;;;;;;;4.72;2.70;;;;;;;;;;4994732;28;20057;-82
2021/07/03 13:00:44;;;;;;;4.13;2.90;;;;;;;;;;4991377;28;20111;-81
2021/07/03 13:03:10;;;;;;;4.93;2.78;;;;;;;;;;4991080;28;20061;-79
2021/07/03 13:05:37;;;;;;;3.28;2.50;;;;;;;;;;4992485;28;20050;-79
2021/07/03 13:08:03;;;;;;;3.45;2.45;;;;;;;;;;4989572;28;20053;-82
2021/07/03 13:10:30;;;;;;;3.60;2.90;;;;;;;;;;4985682;28;20043;-79
2021/07/03 13:12:59;;;;;;;4.72;2.75;;;;;;;;;;4992658;28;20054;-80
2021/07/03 13:15:25;;;;;;;3.58;2.78;;;;;;;;;;4985327;28;20047;-81
2021/07/03 13:17:53;;;;;;;5.15;2.75;;;;;;;;;;4990684;28;20518;-81
2021/07/03 13:20:19;;;;;;;9.27;2.97;;;;;;;;;;4990619;28;20054;-80
2021/07/03 13:22:46;;;;;;;4.15;2.92;;;;;;;;;;4998666;28;20046;-83
2021/07/03 13:25:13;;;;;;;5.75;3.05;;;;;;;;;;4996009;28;20045;-82
2021/07/03 13:27:39;;;;;;;3.80;2.80;;;;;;;;;;4997991;28;20074;-81
2021/07/03 13:30:08;;;;;;;4.15;2.45;;;;;;;;;;4995282;28;20042;-82
2021/07/03 13:32:34;;;;;;;3.80;2.50;;;;;;;;;;4991817;28;20054;-80
2021/07/03 13:35:02;;;;;;;3.42;2.67;;;;;;;;;;4992638;28;20057;-82
2021/07/03 13:37:29;;;;;;;3.30;2.65;;;;;;;;;;4989967;28;20420;-80
2021/07/03 13:39:55;;;;;;;4.25;2.45;;;;;;;;;;4989341;28;20058;-81
2021/07/03 13:42:23;;;;;;;4.45;2.65;;;;;;;;;;4991996;28;20600;-81
2021/07/03 13:44:49;;;;;;;4.22;2.40;;;;;;;;;;4983903;28;20555;-82
2021/07/03 13:47:16;;;;;;;3.53;2.70;;;;;;;;;;4994006;28;20410;-80
2021/07/03 13:49:42;;;;;;;3.70;2.78;;;;;;;;;;4989667;28;20050;-80
2021/07/03 13:52:10;;;;;;;2.88;2.38;;;;;;;;;;4993228;28;20042;-80
2021/07/03 13:54:37;;;;;;;3.40;2.50;;;;;;;;;;4984991;28;20061;-80
2021/07/03 13:57:04;;;;;;;4.38;2.80;;;;;;;;;;4987718;28;20043;-82
2021/07/03 13:59:30;;;;;;;4.38;2.70;;;;;;;;;;4983924;28;20073;-81
2021/07/03 14:01:57;;;;;;;3.15;2.65;;;;;;;;;;4984692;28;20061;-81
2021/07/03 14:04:23;;;;;;;5.80;2.70;;;;;;;;;;4983702;28;20051;-81
2021/07/03 14:06:50;;;;;;;5.22;2.70;;;;;;;;;;4984149;28;20049;-82
2021/07/03 14:09:17;;;;;;;4.93;2.70;;;;;;;;;;4985326;28;20051;-81
2021/07/03 14:11:45;;;;;;;4.35;2.35;;;;;;;;;;4984520;28;20055;-80
2021/07/03 14:14:11;;;;;;;3.58;2.90;;;;;;;;;;4982680;28;20055;-80
2021/07/03 14:16:38;;;;;;;3.25;2.47;;;;;;;;;;4981146;28;20051;-82
2021/07/03 14:19:04;;;;;;;3.75;2.80;;;;;;;;;;4994313;28;20051;-80
2021/07/03 14:21:31;;;;;;;3.60;2.60;;;;;;;;;;4995235;28;20499;-81
2021/07/03 14:23:57;;;;;;;3.45;2.65;;;;;;;;;;4988612;28;20118;-80
2021/07/03 14:26:30;;;;;;;4.40;2.55;;;;;;;;;;4992946;28;20042;-80
2021/07/03 14:28:58;;;;;;;3.38;2.83;;;;;;;;;;4985631;28;20452;-82
2021/07/03 14:31:24;;;;;;;3.42;2.22;;;;;;;;;;4991882;28;20061;-80
2021/07/03 14:33:51;;;;;;;3.47;2.60;;;;;;;;;;4994594;28;20054;-80
2021/07/03 14:36:17;;;;;;;3.03;2.40;;;;;;;;;;4991916;28;20055;-81
2021/07/03 14:38:44;;;;;;;2.78;2.20;;;;;;;;;;4990310;28;20057;-82
2021/07/03 14:41:11;;;;;;;3.70;2.90;;;;;;;;;;4996995;28;20054;-83
2021/07/03 14:43:39;;;;;;;3.15;2.45;;;;;;;;;;4985869;28;20047;-81